sensor_id;sensor_type;location;lat;lon;timestamp;P1;durP1;ratioP1;P2;durP2;ratioP2
45940;SDS011;31858;46.008;8.978;2022-10-16T00:05:48;21.45;;;14.90;;
45940;SDS011;31858;46.008;8.978;2022-10-16T00:15:49;19.73;;;15.95;;
45940;SDS011;31858;46.008;8.978;2022-10-16T00:25:55;24.23;;;17.00;;
45940;SDS011;31858;46.008;8.978;2022-10-16T00:35:58;26.17;;;18.90;;
45940;SDS011;31858;46.008;8.978;2022-10-16T00:46:01;17.85;;;15.63;;
45940;SDS011;31858;46.008;8.978;2022-10-16T00:56:05;29.25;;;21.58;;
45940;SDS011;31858;46.008;8.978;2022-10-16T01:06:12;24.23;;;17.58;;
45940;SDS011;31858;46.008;8.978;2022-10-16T01:16:28;24.30;;;19.48;;
45940;SDS011;31858;46.008;8.978;2022-10-16T01:26:38;20.27;;;17.03;;
45940;SDS011;31858;46.008;8.978;2022-10-16T01:36:55;26.13;;;19.20;;
45940;SDS011;31858;46.008;8.978;2022-10-16T01:47:02;32.22;;;21.65;;
45940;SDS011;31858;46.008;8.978;2022-10-16T01:57:06;26.38;;;21.33;;
45940;SDS011;31858;46.008;8.978;2022-10-16T02:07:09;24.45;;;18.83;;
45940;SDS011;31858;46.008;8.978;2022-10-16T02:17:14;25.45;;;20.77;;
45940;SDS011;31858;46.008;8.978;2022-10-16T02:27:18;26.02;;;21.17;;
45940;SDS011;31858;46.008;8.978;2022-10-16T02:37:26;26.40;;;20.88;;
45940;SDS011;31858;46.008;8.978;2022-10-16T02:47:29;26.52;;;20.70;;
45940;SDS011;31858;46.008;8.978;2022-10-16T02:57:32;26.85;;;19.13;;
45940;SDS011;31858;46.008;8.978;2022-10-16T03:07:34;27.48;;;20.30;;
45940;SDS011;31858;46.008;8.978;2022-10-16T03:17:37;20.92;;;17.90;;
45940;SDS011;31858;46.008;8.978;2022-10-16T03:27:38;26.90;;;19.70;;
45940;SDS011;31858;46.008;8.978;2022-10-16T03:37:41;19.70;;;17.58;;
45940;SDS011;31858;46.008;8.978;2022-10-16T03:47:43;25.45;;;20.73;;
45940;SDS011;31858;46.008;8.978;2022-10-16T03:57:46;20.58;;;18.48;;
45940;SDS011;31858;46.008;8.978;2022-10-16T04:07:47;23.35;;;20.08;;
45940;SDS011;31858;46.008;8.978;2022-10-16T04:17:50;22.88;;;19.67;;
45940;SDS011;31858;46.008;8.978;2022-10-16T04:27:53;24.67;;;21.05;;
45940;SDS011;31858;46.008;8.978;2022-10-16T04:37:58;25.17;;;19.98;;
45940;SDS011;31858;46.008;8.978;2022-10-16T04:47:59;22.75;;;19.52;;
45940;SDS011;31858;46.008;8.978;2022-10-16T04:58:02;25.80;;;21.08;;
45940;SDS011;31858;46.008;8.978;2022-10-16T05:08:04;24.73;;;18.60;;
45940;SDS011;31858;46.008;8.978;2022-10-16T05:18:08;27.48;;;18.67;;
45940;SDS011;31858;46.008;8.978;2022-10-16T05:28:09;21.13;;;17.23;;
45940;SDS011;31858;46.008;8.978;2022-10-16T05:38:12;25.35;;;19.30;;
45940;SDS011;31858;46.008;8.978;2022-10-16T05:48:14;23.52;;;19.23;;
45940;SDS011;31858;46.008;8.978;2022-10-16T05:58:17;23.63;;;19.10;;
45940;SDS011;31858;46.008;8.978;2022-10-16T06:08:19;27.08;;;17.55;;
45940;SDS011;31858;46.008;8.978;2022-10-16T06:18:23;24.70;;;18.27;;
45940;SDS011;31858;46.008;8.978;2022-10-16T06:28:25;20.02;;;16.80;;
45940;SDS011;31858;46.008;8.978;2022-10-16T06:38:28;22.75;;;16.77;;
45940;SDS011;31858;46.008;8.978;2022-10-16T06:48:30;17.50;;;15.15;;
45940;SDS011;31858;46.008;8.978;2022-10-16T06:58:33;19.48;;;14.43;;
45940;SDS011;31858;46.008;8.978;2022-10-16T07:08:35;18.50;;;14.07;;
45940;SDS011;31858;46.008;8.978;2022-10-16T07:18:40;15.93;;;14.23;;
45940;SDS011;31858;46.008;8.978;2022-10-16T07:28:45;18.35;;;15.80;;
45940;SDS011;31858;46.008;8.978;2022-10-16T07:38:48;18.63;;;15.55;;
45940;SDS011;31858;46.008;8.978;2022-10-16T07:48:49;19.33;;;16.90;;
45940;SDS011;31858;46.008;8.978;2022-10-16T07:58:53;21.52;;;17.17;;
45940;SDS011;31858;46.008;8.978;2022-10-16T08:08:56;17.00;;;15.18;;
45940;SDS011;31858;46.008;8.978;2022-10-16T08:19:01;22.52;;;16.40;;
45940;SDS011;31858;46.008;8.978;2022-10-16T08:29:03;17.88;;;14.68;;
45940;SDS011;31858;46.008;8.978;2022-10-16T08:39:05;29.05;;;17.17;;
45940;SDS011;31858;46.008;8.978;2022-10-16T08:49:09;18.70;;;16.63;;
45940;SDS011;31858;46.008;8.978;2022-10-16T08:59:15;22.05;;;18.45;;
45940;SDS011;31858;46.008;8.978;2022-10-16T09:09:24;20.60;;;16.27;;
45940;SDS011;31858;46.008;8.978;2022-10-16T09:19:46;18.80;;;16.90;;
45940;SDS011;31858;46.008;8.978;2022-10-16T09:29:53;19.23;;;17.23;;
45940;SDS011;31858;46.008;8.978;2022-10-16T09:39:56;18.50;;;16.58;;
45940;SDS011;31858;46.008;8.978;2022-10-16T09:49:58;17.08;;;15.27;;
45940;SDS011;31858;46.008;8.978;2022-10-16T10:00:08;24.80;;;17.30;;
45940;SDS011;31858;46.008;8.978;2022-10-16T10:10:18;20.63;;;16.08;;
45940;SDS011;31858;46.008;8.978;2022-10-16T10:20:24;23.98;;;17.92;;
45940;SDS011;31858;46.008;8.978;2022-10-16T10:30:29;19.48;;;15.50;;
45940;SDS011;31858;46.008;8.978;2022-10-16T10:40:45;17.65;;;15.68;;
45940;SDS011;31858;46.008;8.978;2022-10-16T10:50:52;20.38;;;16.25;;
45940;SDS011;31858;46.008;8.978;2022-10-16T11:01:00;17.38;;;15.05;;
45940;SDS011;31858;46.008;8.978;2022-10-16T11:11:06;24.95;;;15.63;;
45940;SDS011;31858;46.008;8.978;2022-10-16T11:21:14;24.73;;;18.67;;
45940;SDS011;31858;46.008;8.978;2022-10-16T11:31:22;19.77;;;17.73;;
45940;SDS011;31858;46.008;8.978;2022-10-16T11:51:36;22.90;;;18.38;;
45940;SDS011;31858;46.008;8.978;2022-10-16T12:01:42;18.27;;;16.35;;
45940;SDS011;31858;46.008;8.978;2022-10-16T12:11:48;19.65;;;16.63;;
45940;SDS011;31858;46.008;8.978;2022-10-16T12:21:51;25.92;;;19.67;;
45940;SDS011;31858;46.008;8.978;2022-10-16T12:31:55;19.45;;;16.05;;
45940;SDS011;31858;46.008;8.978;2022-10-16T12:42:02;24.05;;;18.27;;
45940;SDS011;31858;46.008;8.978;2022-10-16T13:02:39;18.60;;;16.42;;
45940;SDS011;31858;46.008;8.978;2022-10-16T13:13:01;17.33;;;15.38;;
45940;SDS011;31858;46.008;8.978;2022-10-16T13:23:24;23.13;;;17.27;;
45940;SDS011;31858;46.008;8.978;2022-10-16T13:33:31;21.50;;;16.87;;
45940;SDS011;31858;46.008;8.978;2022-10-16T13:43:36;20.42;;;16.13;;
45940;SDS011;31858;46.008;8.978;2022-10-16T13:53:40;19.40;;;17.20;;
45940;SDS011;31858;46.008;8.978;2022-10-16T14:03:44;21.23;;;18.02;;
45940;SDS011;31858;46.008;8.978;2022-10-16T14:13:47;19.48;;;16.02;;
45940;SDS011;31858;46.008;8.978;2022-10-16T14:23:50;25.98;;;18.65;;
45940;SDS011;31858;46.008;8.978;2022-10-16T14:33:52;25.55;;;18.63;;
45940;SDS011;31858;46.008;8.978;2022-10-16T14:43:56;21.20;;;17.38;;
45940;SDS011;31858;46.008;8.978;2022-10-16T14:54:02;24.52;;;20.27;;
45940;SDS011;31858;46.008;8.978;2022-10-16T15:04:07;25.67;;;18.10;;
45940;SDS011;31858;46.008;8.978;2022-10-16T15:14:11;27.05;;;21.73;;
45940;SDS011;31858;46.008;8.978;2022-10-16T15:24:15;22.77;;;20.33;;
45940;SDS011;31858;46.008;8.978;2022-10-16T15:34:16;23.98;;;19.80;;
45940;SDS011;31858;46.008;8.978;2022-10-16T15:44:20;26.90;;;20.98;;
45940;SDS011;31858;46.008;8.978;2022-10-16T15:54:23;27.52;;;24.33;;
45940;SDS011;31858;46.008;8.978;2022-10-16T16:04:26;31.40;;;26.48;;
45940;SDS011;31858;46.008;8.978;2022-10-16T16:14:30;33.78;;;24.88;;
45940;SDS011;31858;46.008;8.978;2022-10-16T16:24:33;37.35;;;27.38;;
45940;SDS011;31858;46.008;8.978;2022-10-16T16:34:34;47.13;;;34.88;;
45940;SDS011;31858;46.008;8.978;2022-10-16T16:44:37;52.05;;;38.50;;
45940;SDS011;31858;46.008;8.978;2022-10-16T16:54:39;50.08;;;37.05;;
45940;SDS011;31858;46.008;8.978;2022-10-16T17:04:42;50.88;;;38.38;;
45940;SDS011;31858;46.008;8.978;2022-10-16T17:14:44;48.05;;;38.45;;
45940;SDS011;31858;46.008;8.978;2022-10-16T17:24:48;55.97;;;41.78;;
45940;SDS011;31858;46.008;8.978;2022-10-16T17:34:51;58.97;;;41.60;;
45940;SDS011;31858;46.008;8.978;2022-10-16T17:44:54;57.92;;;43.30;;
45940;SDS011;31858;46.008;8.978;2022-10-16T17:54:55;69.35;;;47.42;;
45940;SDS011;31858;46.008;8.978;2022-10-16T18:04:59;69.53;;;46.28;;
45940;SDS011;31858;46.008;8.978;2022-10-16T18:15:01;66.85;;;48.05;;
45940;SDS011;31858;46.008;8.978;2022-10-16T18:25:04;69.22;;;49.50;;
45940;SDS011;31858;46.008;8.978;2022-10-16T18:35:07;66.07;;;47.67;;
45940;SDS011;31858;46.008;8.978;2022-10-16T18:45:10;77.60;;;51.63;;
45940;SDS011;31858;46.008;8.978;2022-10-16T18:55:11;72.57;;;50.75;;
45940;SDS011;31858;46.008;8.978;2022-10-16T19:05:14;85.45;;;51.13;;
45940;SDS011;31858;46.008;8.978;2022-10-16T19:15:16;69.45;;;48.97;;
45940;SDS011;31858;46.008;8.978;2022-10-16T19:25:19;70.03;;;49.42;;
45940;SDS011;31858;46.008;8.978;2022-10-16T19:35:21;71.30;;;48.55;;
45940;SDS011;31858;46.008;8.978;2022-10-16T19:45:26;58.30;;;42.10;;
45940;SDS011;31858;46.008;8.978;2022-10-16T19:55:29;53.47;;;37.92;;
45940;SDS011;31858;46.008;8.978;2022-10-16T20:05:32;35.67;;;28.25;;
45940;SDS011;31858;46.008;8.978;2022-10-16T20:15:35;43.38;;;31.75;;
45940;SDS011;31858;46.008;8.978;2022-10-16T20:25:39;42.67;;;33.58;;
45940;SDS011;31858;46.008;8.978;2022-10-16T20:35:42;42.03;;;31.50;;
45940;SDS011;31858;46.008;8.978;2022-10-16T20:45:46;48.15;;;30.98;;
45940;SDS011;31858;46.008;8.978;2022-10-16T20:55:47;41.35;;;29.70;;
45940;SDS011;31858;46.008;8.978;2022-10-16T21:05:50;40.50;;;27.65;;
45940;SDS011;31858;46.008;8.978;2022-10-16T21:15:52;41.85;;;31.42;;
45940;SDS011;31858;46.008;8.978;2022-10-16T21:25:55;36.10;;;26.80;;
45940;SDS011;31858;46.008;8.978;2022-10-16T21:35:56;37.70;;;27.40;;
45940;SDS011;31858;46.008;8.978;2022-10-16T21:46:02;39.00;;;29.98;;
45940;SDS011;31858;46.008;8.978;2022-10-16T21:56:03;45.42;;;31.38;;
45940;SDS011;31858;46.008;8.978;2022-10-16T22:06:08;45.90;;;30.23;;
45940;SDS011;31858;46.008;8.978;2022-10-16T22:16:11;40.08;;;24.73;;
45940;SDS011;31858;46.008;8.978;2022-10-16T22:26:14;30.75;;;24.75;;
45940;SDS011;31858;46.008;8.978;2022-10-16T22:36:16;37.42;;;28.83;;
45940;SDS011;31858;46.008;8.978;2022-10-16T22:46:19;34.78;;;25.15;;
45940;SDS011;31858;46.008;8.978;2022-10-16T22:56:22;39.42;;;27.88;;
45940;SDS011;31858;46.008;8.978;2022-10-16T23:06:25;33.63;;;23.67;;
45940;SDS011;31858;46.008;8.978;2022-10-16T23:16:27;27.80;;;21.80;;
45940;SDS011;31858;46.008;8.978;2022-10-16T23:26:32;28.95;;;22.20;;
45940;SDS011;31858;46.008;8.978;2022-10-16T23:36:35;32.80;;;25.48;;
45940;SDS011;31858;46.008;8.978;2022-10-16T23:46:38;33.30;;;26.05;;
45940;SDS011;31858;46.008;8.978;2022-10-16T23:56:39;31.35;;;25.60;;
